Imperial Beach, CA (91933)

4:16 AM PST on March 01, 2015 (GMT -0800)
KCAIMPER2 | Change Station
CLOSE
Current Station
Personal Weather Station
Location: Imperial Beach, CA
Elevation: 14 ft
Nearby Weather Stations

Elev 14 ft 32.58 °N, 117.13 °W | Updated 9 minutes ago

Light Rain
Light Rain
55.8 °F
Feels Like 55.8 °F
N
7.0
Wind Variable Wind from SE
Gusts 9.0 mph

Today
High -- | Low -- °F
--% Chance of Precip.
Yesterday
High -- | Low -- °F
Precip. -- in
6:16 AM 5:45 PM
Waxing Gibbous, 84% visible
Pressure 29.91 in
Visibility -9999.0 miles
Clouds Overcast 7000 ft
Dew Point 53 °F
Humidity 89%
Rainfall 0.00 in
Snow Depth Not available.
UV 0 out of 12
Pollen 6.80 out of 12
Air Quality Not available.
Flu Activity Not available.
METAR KNRS 011156Z AUTO 10008KT -RA OVC070 13/12 A2991 RMK AO2 SLP128 P0000 60000 T01330117 10150 20133 58008 $

More Conditions Fewer Conditions

Pressure 29.91 in
Visibility -9999.0 miles
Clouds Overcast 7000 ft
Dew Point 53 °F
Humidity 89%
Rainfall 0.00 in
Snow Depth Not available.
UV 0 out of 12
Pollen 6.80 out of 12
Air Quality Not available.
Flu Activity Not available.
METAR KNRS 011156Z AUTO 10008KT -RA OVC070 13/12 A2991 RMK AO2 SLP128 P0000 60000 T01330117 10150 20133 58008 $

More Conditions Fewer Conditions

10-Day Weather Forecast

Almanac

Astronomy

Mar. 01, 2015 Rise Set
Actual Time
Civil Twilight
Nautical Twilight
Astronomical Twilight
Moon
Length of Visible Light
Length of Day
Tomorrow will be .
, % of the Moon is Illuminated

Today's Extremes

State Highs State Lows

Community

WunderPhotos

Upload Photos

1,801,365 photos uploaded!

WunderBlogs® & News

Nearby

Air Quality

  Air Quality AQ Index Pollutant
Not available.

Snow Depth

Station Depth Elevation

Earthquake Activity

City Distance Mag. Time & Date
Minimum magnitude displayed is 2.5.

Coastal Water Temperatures

Place Temperature

Nearby Weather Stations